sensor_id;sensor_type;location;lat;lon;timestamp;P1;durP1;ratioP1;P2;durP2;ratioP2
53835;SDS011;39737;43.334;21.936;2024-01-30T00:00:35;3.38;;;3.13;;
53835;SDS011;39737;43.334;21.936;2024-01-30T00:03:22;6.70;;;1.67;;
53835;SDS011;39737;43.334;21.936;2024-01-30T00:06:08;1.08;;;0.98;;
53835;SDS011;39737;43.334;21.936;2024-01-30T00:09:13;4.93;;;3.25;;
53835;SDS011;39737;43.334;21.936;2024-01-30T00:11:59;9.90;;;2.50;;
53835;SDS011;39737;43.334;21.936;2024-01-30T00:14:46;2.20;;;2.10;;
53835;SDS011;39737;43.334;21.936;2024-01-30T00:17:32;4.32;;;2.15;;
53835;SDS011;39737;43.334;21.936;2024-01-30T00:20:19;2.30;;;2.08;;
53835;SDS011;39737;43.334;21.936;2024-01-30T00:23:25;4.80;;;2.17;;
53835;SDS011;39737;43.334;21.936;2024-01-30T00:26:12;2.03;;;1.83;;
53835;SDS011;39737;43.334;21.936;2024-01-30T00:28:58;5.40;;;3.63;;
53835;SDS011;39737;43.334;21.936;2024-01-30T00:31:45;1.85;;;1.75;;
53835;SDS011;39737;43.334;21.936;2024-01-30T00:34:31;2.25;;;2.15;;
53835;SDS011;39737;43.334;21.936;2024-01-30T00:37:18;1.70;;;1.65;;
53835;SDS011;39737;43.334;21.936;2024-01-30T00:40:05;1.92;;;1.83;;
53835;SDS011;39737;43.334;21.936;2024-01-30T00:42:52;2.20;;;2.00;;
53835;SDS011;39737;43.334;21.936;2024-01-30T00:45:39;3.05;;;2.10;;
53835;SDS011;39737;43.334;21.936;2024-01-30T00:48:26;1.88;;;1.77;;
53835;SDS011;39737;43.334;21.936;2024-01-30T00:51:13;0.77;;;0.77;;
53835;SDS011;39737;43.334;21.936;2024-01-30T00:53:59;2.70;;;2.08;;
53835;SDS011;39737;43.334;21.936;2024-01-30T00:56:46;2.88;;;1.70;;
53835;SDS011;39737;43.334;21.936;2024-01-30T00:59:33;2.95;;;1.65;;
53835;SDS011;39737;43.334;21.936;2024-01-30T01:02:19;2.95;;;2.75;;
53835;SDS011;39737;43.334;21.936;2024-01-30T01:05:06;3.17;;;2.90;;
53835;SDS011;39737;43.334;21.936;2024-01-30T01:07:53;2.28;;;2.03;;
53835;SDS011;39737;43.334;21.936;2024-01-30T01:10:39;1.45;;;1.45;;
53835;SDS011;39737;43.334;21.936;2024-01-30T01:13:28;3.60;;;1.88;;
53835;SDS011;39737;43.334;21.936;2024-01-30T01:16:14;2.40;;;2.15;;
53835;SDS011;39737;43.334;21.936;2024-01-30T01:19:00;3.60;;;2.55;;
53835;SDS011;39737;43.334;21.936;2024-01-30T01:21:47;3.20;;;1.67;;
53835;SDS011;39737;43.334;21.936;2024-01-30T01:24:33;1.65;;;1.55;;
53835;SDS011;39737;43.334;21.936;2024-01-30T01:27:20;1.65;;;1.55;;
53835;SDS011;39737;43.334;21.936;2024-01-30T01:30:08;0.80;;;0.80;;
53835;SDS011;39737;43.334;21.936;2024-01-30T01:32:55;2.15;;;1.30;;
53835;SDS011;39737;43.334;21.936;2024-01-30T01:35:43;1.15;;;1.15;;
53835;SDS011;39737;43.334;21.936;2024-01-30T01:38:29;2.10;;;2.00;;
53835;SDS011;39737;43.334;21.936;2024-01-30T01:41:16;1.60;;;1.50;;
53835;SDS011;39737;43.334;21.936;2024-01-30T01:44:03;1.45;;;1.42;;
53835;SDS011;39737;43.334;21.936;2024-01-30T01:46:49;1.73;;;1.58;;
53835;SDS011;39737;43.334;21.936;2024-01-30T01:49:37;1.98;;;1.88;;
53835;SDS011;39737;43.334;21.936;2024-01-30T01:52:24;1.38;;;1.38;;
53835;SDS011;39737;43.334;21.936;2024-01-30T01:55:11;2.35;;;2.15;;
53835;SDS011;39737;43.334;21.936;2024-01-30T01:57:58;1.60;;;1.40;;
53835;SDS011;39737;43.334;21.936;2024-01-30T02:00:45;1.73;;;1.63;;
53835;SDS011;39737;43.334;21.936;2024-01-30T02:03:51;2.53;;;2.30;;
53835;SDS011;39737;43.334;21.936;2024-01-30T02:06:37;4.70;;;1.92;;
53835;SDS011;39737;43.334;21.936;2024-01-30T02:09:24;4.60;;;1.38;;
53835;SDS011;39737;43.334;21.936;2024-01-30T02:12:11;1.63;;;1.52;;
53835;SDS011;39737;43.334;21.936;2024-01-30T02:14:57;1.85;;;1.70;;
53835;SDS011;39737;43.334;21.936;2024-01-30T02:17:43;1.58;;;1.48;;
53835;SDS011;39737;43.334;21.936;2024-01-30T02:20:32;3.17;;;2.97;;
53835;SDS011;39737;43.334;21.936;2024-01-30T02:23:21;0.80;;;0.80;;
53835;SDS011;39737;43.334;21.936;2024-01-30T02:26:08;3.97;;;1.05;;
53835;SDS011;39737;43.334;21.936;2024-01-30T02:28:55;2.03;;;1.92;;
53835;SDS011;39737;43.334;21.936;2024-01-30T02:31:41;0.98;;;0.98;;
53835;SDS011;39737;43.334;21.936;2024-01-30T02:34:27;2.80;;;1.73;;
53835;SDS011;39737;43.334;21.936;2024-01-30T02:37:14;1.73;;;1.63;;
53835;SDS011;39737;43.334;21.936;2024-01-30T02:40:01;1.90;;;1.80;;
53835;SDS011;39737;43.334;21.936;2024-01-30T02:42:51;1.20;;;1.20;;
53835;SDS011;39737;43.334;21.936;2024-01-30T02:45:38;2.97;;;2.55;;
53835;SDS011;39737;43.334;21.936;2024-01-30T02:48:25;1.63;;;1.52;;
53835;SDS011;39737;43.334;21.936;2024-01-30T02:51:11;2.25;;;2.08;;
53835;SDS011;39737;43.334;21.936;2024-01-30T02:53:57;1.85;;;1.75;;
53835;SDS011;39737;43.334;21.936;2024-01-30T02:56:44;17.27;;;2.80;;
53835;SDS011;39737;43.334;21.936;2024-01-30T02:59:30;3.20;;;2.25;;
53835;SDS011;39737;43.334;21.936;2024-01-30T03:02:19;0.90;;;0.90;;
53835;SDS011;39737;43.334;21.936;2024-01-30T03:05:06;1.92;;;1.83;;
53835;SDS011;39737;43.334;21.936;2024-01-30T03:07:53;1.80;;;1.70;;
53835;SDS011;39737;43.334;21.936;2024-01-30T03:10:39;1.92;;;1.83;;
53835;SDS011;39737;43.334;21.936;2024-01-30T03:13:26;2.15;;;1.52;;
53835;SDS011;39737;43.334;21.936;2024-01-30T03:16:12;1.98;;;1.88;;
53835;SDS011;39737;43.334;21.936;2024-01-30T03:18:59;1.00;;;1.00;;
53835;SDS011;39737;43.334;21.936;2024-01-30T03:21:47;0.55;;;0.55;;
53835;SDS011;39737;43.334;21.936;2024-01-30T03:24:34;1.05;;;1.02;;
53835;SDS011;39737;43.334;21.936;2024-01-30T03:27:20;0.90;;;0.90;;
53835;SDS011;39737;43.334;21.936;2024-01-30T03:30:07;0.80;;;0.80;;
53835;SDS011;39737;43.334;21.936;2024-01-30T03:32:53;2.13;;;1.52;;
53835;SDS011;39737;43.334;21.936;2024-01-30T03:35:40;4.38;;;1.70;;
53835;SDS011;39737;43.334;21.936;2024-01-30T03:38:26;3.25;;;2.50;;
53835;SDS011;39737;43.334;21.936;2024-01-30T03:41:13;0.70;;;0.70;;
53835;SDS011;39737;43.334;21.936;2024-01-30T03:44:00;2.00;;;1.90;;
53835;SDS011;39737;43.334;21.936;2024-01-30T03:46:47;1.90;;;1.80;;
53835;SDS011;39737;43.334;21.936;2024-01-30T03:49:34;1.70;;;1.08;;
53835;SDS011;39737;43.334;21.936;2024-01-30T03:52:21;1.90;;;1.80;;
53835;SDS011;39737;43.334;21.936;2024-01-30T03:55:08;1.45;;;1.35;;
53835;SDS011;39737;43.334;21.936;2024-01-30T03:57:54;2.38;;;1.63;;
53835;SDS011;39737;43.334;21.936;2024-01-30T04:00:41;2.13;;;1.95;;
53835;SDS011;39737;43.334;21.936;2024-01-30T04:03:47;1.13;;;1.13;;
53835;SDS011;39737;43.334;21.936;2024-01-30T04:06:33;0.98;;;0.98;;
53835;SDS011;39737;43.334;21.936;2024-01-30T04:09:20;0.95;;;0.82;;
53835;SDS011;39737;43.334;21.936;2024-01-30T04:12:06;1.27;;;1.27;;
53835;SDS011;39737;43.334;21.936;2024-01-30T04:14:52;11.35;;;2.30;;
53835;SDS011;39737;43.334;21.936;2024-01-30T04:17:39;1.05;;;1.05;;
53835;SDS011;39737;43.334;21.936;2024-01-30T04:20:26;0.98;;;0.98;;
53835;SDS011;39737;43.334;21.936;2024-01-30T04:23:13;1.23;;;1.23;;
53835;SDS011;39737;43.334;21.936;2024-01-30T04:25:59;1.55;;;1.45;;
53835;SDS011;39737;43.334;21.936;2024-01-30T04:28:46;1.17;;;1.17;;
53835;SDS011;39737;43.334;21.936;2024-01-30T04:31:32;0.95;;;0.95;;
53835;SDS011;39737;43.334;21.936;2024-01-30T04:34:18;22.90;;;2.83;;
53835;SDS011;39737;43.334;21.936;2024-01-30T04:37:05;3.85;;;3.08;;
53835;SDS011;39737;43.334;21.936;2024-01-30T04:39:54;2.67;;;2.33;;
53835;SDS011;39737;43.334;21.936;2024-01-30T04:42:40;5.05;;;2.95;;
53835;SDS011;39737;43.334;21.936;2024-01-30T04:45:27;2.55;;;2.30;;
53835;SDS011;39737;43.334;21.936;2024-01-30T04:48:14;3.22;;;2.15;;
53835;SDS011;39737;43.334;21.936;2024-01-30T04:51:00;3.63;;;2.35;;
53835;SDS011;39737;43.334;21.936;2024-01-30T04:53:49;7.05;;;2.45;;
53835;SDS011;39737;43.334;21.936;2024-01-30T04:56:35;2.20;;;1.95;;
53835;SDS011;39737;43.334;21.936;2024-01-30T04:59:22;5.78;;;3.47;;
53835;SDS011;39737;43.334;21.936;2024-01-30T05:02:08;2.13;;;1.40;;
53835;SDS011;39737;43.334;21.936;2024-01-30T05:04:55;3.45;;;2.15;;
53835;SDS011;39737;43.334;21.936;2024-01-30T05:07:42;1.85;;;1.75;;
53835;SDS011;39737;43.334;21.936;2024-01-30T05:10:28;4.22;;;2.20;;
53835;SDS011;39737;43.334;21.936;2024-01-30T05:13:16;1.30;;;1.30;;
53835;SDS011;39737;43.334;21.936;2024-01-30T05:16:02;1.10;;;1.10;;
53835;SDS011;39737;43.334;21.936;2024-01-30T05:18:50;2.22;;;2.03;;
53835;SDS011;39737;43.334;21.936;2024-01-30T05:21:37;7.22;;;3.35;;
53835;SDS011;39737;43.334;21.936;2024-01-30T05:24:23;3.05;;;2.28;;
53835;SDS011;39737;43.334;21.936;2024-01-30T05:27:12;1.88;;;1.77;;
53835;SDS011;39737;43.334;21.936;2024-01-30T05:30:05;2.30;;;2.15;;
53835;SDS011;39737;43.334;21.936;2024-01-30T05:32:52;3.35;;;2.38;;
53835;SDS011;39737;43.334;21.936;2024-01-30T05:35:39;5.57;;;4.05;;
53835;SDS011;39737;43.334;21.936;2024-01-30T05:38:25;15.15;;;7.28;;
53835;SDS011;39737;43.334;21.936;2024-01-30T05:41:11;12.80;;;9.18;;
53835;SDS011;39737;43.334;21.936;2024-01-30T05:43:58;16.55;;;11.05;;
53835;SDS011;39737;43.334;21.936;2024-01-30T05:46:45;45.17;;;20.10;;
53835;SDS011;39737;43.334;21.936;2024-01-30T05:49:31;18.15;;;9.30;;
53835;SDS011;39737;43.334;21.936;2024-01-30T05:52:18;11.63;;;8.90;;
53835;SDS011;39737;43.334;21.936;2024-01-30T05:55:05;25.13;;;16.30;;
53835;SDS011;39737;43.334;21.936;2024-01-30T05:57:51;7.78;;;4.20;;
53835;SDS011;39737;43.334;21.936;2024-01-30T06:00:38;10.65;;;5.70;;
53835;SDS011;39737;43.334;21.936;2024-01-30T06:03:25;13.52;;;6.53;;
53835;SDS011;39737;43.334;21.936;2024-01-30T06:06:11;9.57;;;4.28;;
53835;SDS011;39737;43.334;21.936;2024-01-30T06:08:58;2.97;;;2.78;;
53835;SDS011;39737;43.334;21.936;2024-01-30T06:11:45;7.55;;;4.57;;
53835;SDS011;39737;43.334;21.936;2024-01-30T06:14:31;3.38;;;3.17;;
53835;SDS011;39737;43.334;21.936;2024-01-30T06:17:19;7.90;;;7.13;;
53835;SDS011;39737;43.334;21.936;2024-01-30T06:20:07;9.98;;;4.40;;
53835;SDS011;39737;43.334;21.936;2024-01-30T06:22:54;12.80;;;8.77;;
53835;SDS011;39737;43.334;21.936;2024-01-30T06:25:41;25.73;;;14.20;;
53835;SDS011;39737;43.334;21.936;2024-01-30T06:28:27;7.28;;;5.53;;
53835;SDS011;39737;43.334;21.936;2024-01-30T06:31:13;15.90;;;8.00;;
53835;SDS011;39737;43.334;21.936;2024-01-30T06:34:00;16.25;;;7.05;;
53835;SDS011;39737;43.334;21.936;2024-01-30T06:36:47;6.68;;;6.15;;
53835;SDS011;39737;43.334;21.936;2024-01-30T06:39:33;7.13;;;4.80;;
53835;SDS011;39737;43.334;21.936;2024-01-30T06:42:19;25.23;;;6.97;;
53835;SDS011;39737;43.334;21.936;2024-01-30T06:45:07;10.55;;;5.80;;
53835;SDS011;39737;43.334;21.936;2024-01-30T06:47:54;27.50;;;6.97;;
53835;SDS011;39737;43.334;21.936;2024-01-30T06:50:40;23.42;;;8.25;;
53835;SDS011;39737;43.334;21.936;2024-01-30T06:53:26;6.43;;;5.05;;
53835;SDS011;39737;43.334;21.936;2024-01-30T06:56:13;15.82;;;8.80;;
53835;SDS011;39737;43.334;21.936;2024-01-30T06:58:59;10.98;;;5.00;;
53835;SDS011;39737;43.334;21.936;2024-01-30T07:01:45;8.68;;;7.05;;
53835;SDS011;39737;43.334;21.936;2024-01-30T07:04:32;12.20;;;8.27;;
53835;SDS011;39737;43.334;21.936;2024-01-30T07:07:19;5.38;;;4.88;;
53835;SDS011;39737;43.334;21.936;2024-01-30T07:10:05;15.77;;;11.20;;
53835;SDS011;39737;43.334;21.936;2024-01-30T07:12:52;19.63;;;14.07;;
53835;SDS011;39737;43.334;21.936;2024-01-30T07:15:38;211.75;;;78.28;;
53835;SDS011;39737;43.334;21.936;2024-01-30T07:18:25;62.85;;;23.45;;
53835;SDS011;39737;43.334;21.936;2024-01-30T07:21:11;152.90;;;56.00;;
53835;SDS011;39737;43.334;21.936;2024-01-30T07:23:57;215.95;;;111.95;;
53835;SDS011;39737;43.334;21.936;2024-01-30T07:26:44;230.63;;;122.38;;
53835;SDS011;39737;43.334;21.936;2024-01-30T07:29:30;85.00;;;47.13;;
53835;SDS011;39737;43.334;21.936;2024-01-30T07:32:16;100.57;;;51.63;;
53835;SDS011;39737;43.334;21.936;2024-01-30T07:35:03;51.45;;;33.72;;
53835;SDS011;39737;43.334;21.936;2024-01-30T07:37:54;63.75;;;34.50;;
53835;SDS011;39737;43.334;21.936;2024-01-30T07:40:40;75.45;;;38.97;;
53835;SDS011;39737;43.334;21.936;2024-01-30T07:43:27;55.58;;;29.95;;
53835;SDS011;39737;43.334;21.936;2024-01-30T07:46:13;86.97;;;50.97;;
53835;SDS011;39737;43.334;21.936;2024-01-30T07:48:59;101.95;;;57.63;;
53835;SDS011;39737;43.334;21.936;2024-01-30T07:51:46;56.25;;;34.92;;
53835;SDS011;39737;43.334;21.936;2024-01-30T07:54:32;42.75;;;24.80;;
53835;SDS011;39737;43.334;21.936;2024-01-30T07:57:19;32.88;;;19.00;;
53835;SDS011;39737;43.334;21.936;2024-01-30T08:00:06;62.72;;;42.22;;
53835;SDS011;39737;43.334;21.936;2024-01-30T08:02:53;28.35;;;20.13;;
53835;SDS011;39737;43.334;21.936;2024-01-30T08:05:43;33.38;;;21.67;;
53835;SDS011;39737;43.334;21.936;2024-01-30T08:08:29;22.95;;;13.65;;
53835;SDS011;39737;43.334;21.936;2024-01-30T08:11:16;29.63;;;16.50;;
53835;SDS011;39737;43.334;21.936;2024-01-30T08:14:02;59.88;;;36.35;;
53835;SDS011;39737;43.334;21.936;2024-01-30T08:16:49;44.20;;;26.55;;
53835;SDS011;39737;43.334;21.936;2024-01-30T08:19:36;16.08;;;11.05;;
53835;SDS011;39737;43.334;21.936;2024-01-30T08:22:22;9.25;;;5.93;;
53835;SDS011;39737;43.334;21.936;2024-01-30T08:25:09;26.83;;;15.48;;
53835;SDS011;39737;43.334;21.936;2024-01-30T08:27:56;15.70;;;9.02;;
53835;SDS011;39737;43.334;21.936;2024-01-30T08:30:44;19.48;;;12.15;;
53835;SDS011;39737;43.334;21.936;2024-01-30T08:33:30;16.05;;;10.57;;
53835;SDS011;39737;43.334;21.936;2024-01-30T08:36:16;10.13;;;5.53;;
53835;SDS011;39737;43.334;21.936;2024-01-30T08:39:03;4.25;;;3.45;;
53835;SDS011;39737;43.334;21.936;2024-01-30T08:41:51;6.13;;;2.85;;
53835;SDS011;39737;43.334;21.936;2024-01-30T08:44:38;6.28;;;4.07;;
53835;SDS011;39737;43.334;21.936;2024-01-30T08:47:24;10.20;;;7.13;;
53835;SDS011;39737;43.334;21.936;2024-01-30T08:50:11;12.82;;;4.68;;
53835;SDS011;39737;43.334;21.936;2024-01-30T08:52:57;11.40;;;7.90;;
53835;SDS011;39737;43.334;21.936;2024-01-30T08:55:44;16.58;;;9.95;;
53835;SDS011;39737;43.334;21.936;2024-01-30T08:58:30;3.75;;;2.10;;
53835;SDS011;39737;43.334;21.936;2024-01-30T09:01:16;5.20;;;3.33;;
53835;SDS011;39737;43.334;21.936;2024-01-30T09:04:03;9.23;;;4.43;;
53835;SDS011;39737;43.334;21.936;2024-01-30T09:06:49;2.40;;;2.13;;
53835;SDS011;39737;43.334;21.936;2024-01-30T09:09:39;9.05;;;4.10;;
53835;SDS011;39737;43.334;21.936;2024-01-30T09:15:33;2.53;;;2.33;;
53835;SDS011;39737;43.334;21.936;2024-01-30T09:18:19;7.15;;;3.22;;
53835;SDS011;39737;43.334;21.936;2024-01-30T09:21:06;4.15;;;2.65;;
53835;SDS011;39737;43.334;21.936;2024-01-30T09:24:00;2.42;;;2.22;;
53835;SDS011;39737;43.334;21.936;2024-01-30T09:26:47;8.95;;;5.63;;
53835;SDS011;39737;43.334;21.936;2024-01-30T09:29:33;2.17;;;2.00;;
53835;SDS011;39737;43.334;21.936;2024-01-30T09:32:22;14.43;;;5.30;;
53835;SDS011;39737;43.334;21.936;2024-01-30T09:35:09;2.45;;;2.05;;
53835;SDS011;39737;43.334;21.936;2024-01-30T09:37:55;2.55;;;2.35;;
53835;SDS011;39737;43.334;21.936;2024-01-30T09:40:42;23.88;;;14.77;;
53835;SDS011;39737;43.334;21.936;2024-01-30T09:43:32;26.05;;;12.65;;
53835;SDS011;39737;43.334;21.936;2024-01-30T09:46:18;29.77;;;17.15;;
53835;SDS011;39737;43.334;21.936;2024-01-30T09:49:08;36.33;;;19.63;;
53835;SDS011;39737;43.334;21.936;2024-01-30T09:51:55;17.67;;;7.35;;
53835;SDS011;39737;43.334;21.936;2024-01-30T09:54:42;19.83;;;12.55;;
53835;SDS011;39737;43.334;21.936;2024-01-30T09:57:29;32.15;;;15.80;;
53835;SDS011;39737;43.334;21.936;2024-01-30T10:00:15;8.75;;;6.50;;
53835;SDS011;39737;43.334;21.936;2024-01-30T10:03:03;37.53;;;22.73;;
53835;SDS011;39737;43.334;21.936;2024-01-30T10:05:53;12.95;;;7.30;;
53835;SDS011;39737;43.334;21.936;2024-01-30T10:08:39;4.88;;;3.53;;
53835;SDS011;39737;43.334;21.936;2024-01-30T10:11:26;4.68;;;3.67;;
53835;SDS011;39737;43.334;21.936;2024-01-30T10:14:13;6.05;;;3.80;;
53835;SDS011;39737;43.334;21.936;2024-01-30T10:17:00;12.50;;;5.10;;
53835;SDS011;39737;43.334;21.936;2024-01-30T10:19:50;7.22;;;4.53;;
53835;SDS011;39737;43.334;21.936;2024-01-30T10:22:37;5.78;;;4.00;;
53835;SDS011;39737;43.334;21.936;2024-01-30T10:25:25;38.40;;;25.73;;
53835;SDS011;39737;43.334;21.936;2024-01-30T10:28:11;6.13;;;4.57;;
53835;SDS011;39737;43.334;21.936;2024-01-30T10:31:00;96.22;;;61.05;;
53835;SDS011;39737;43.334;21.936;2024-01-30T10:33:51;14.05;;;8.82;;
53835;SDS011;39737;43.334;21.936;2024-01-30T10:36:47;4.28;;;3.85;;
53835;SDS011;39737;43.334;21.936;2024-01-30T10:39:37;4.75;;;3.50;;
53835;SDS011;39737;43.334;21.936;2024-01-30T10:42:26;9.93;;;5.45;;
53835;SDS011;39737;43.334;21.936;2024-01-30T10:45:13;12.00;;;7.95;;
53835;SDS011;39737;43.334;21.936;2024-01-30T10:47:59;14.05;;;8.40;;
53835;SDS011;39737;43.334;21.936;2024-01-30T10:50:46;15.77;;;9.80;;
53835;SDS011;39737;43.334;21.936;2024-01-30T10:53:45;14.18;;;7.90;;
53835;SDS011;39737;43.334;21.936;2024-01-30T10:56:32;13.73;;;6.03;;
53835;SDS011;39737;43.334;21.936;2024-01-30T10:59:19;11.50;;;6.80;;
53835;SDS011;39737;43.334;21.936;2024-01-30T11:02:06;9.35;;;5.60;;
53835;SDS011;39737;43.334;21.936;2024-01-30T11:04:57;11.30;;;4.85;;
53835;SDS011;39737;43.334;21.936;2024-01-30T11:07:43;10.43;;;6.95;;
53835;SDS011;39737;43.334;21.936;2024-01-30T11:10:30;18.77;;;9.23;;
53835;SDS011;39737;43.334;21.936;2024-01-30T11:13:18;17.30;;;9.25;;
53835;SDS011;39737;43.334;21.936;2024-01-30T11:16:05;15.98;;;9.93;;
53835;SDS011;39737;43.334;21.936;2024-01-30T11:18:52;11.52;;;7.15;;
53835;SDS011;39737;43.334;21.936;2024-01-30T11:21:42;14.02;;;7.68;;
53835;SDS011;39737;43.334;21.936;2024-01-30T11:24:29;20.15;;;9.73;;
53835;SDS011;39737;43.334;21.936;2024-01-30T11:27:15;13.75;;;6.30;;
53835;SDS011;39737;43.334;21.936;2024-01-30T11:30:02;17.45;;;8.20;;
53835;SDS011;39737;43.334;21.936;2024-01-30T11:35:44;18.25;;;11.60;;
53835;SDS011;39737;43.334;21.936;2024-01-30T11:38:31;16.30;;;8.27;;
53835;SDS011;39737;43.334;21.936;2024-01-30T11:41:17;16.33;;;9.60;;
53835;SDS011;39737;43.334;21.936;2024-01-30T11:44:04;21.33;;;11.90;;
53835;SDS011;39737;43.334;21.936;2024-01-30T11:46:51;48.33;;;22.98;;
53835;SDS011;39737;43.334;21.936;2024-01-30T11:49:38;26.88;;;16.05;;
53835;SDS011;39737;43.334;21.936;2024-01-30T11:52:25;17.38;;;10.85;;
53835;SDS011;39737;43.334;21.936;2024-01-30T11:55:12;15.07;;;10.20;;
53835;SDS011;39737;43.334;21.936;2024-01-30T11:57:58;10.98;;;6.57;;
53835;SDS011;39737;43.334;21.936;2024-01-30T12:01:03;11.02;;;7.72;;
53835;SDS011;39737;43.334;21.936;2024-01-30T12:03:50;15.27;;;8.00;;
53835;SDS011;39737;43.334;21.936;2024-01-30T12:06:37;10.57;;;6.75;;
53835;SDS011;39737;43.334;21.936;2024-01-30T12:09:24;12.55;;;6.38;;
53835;SDS011;39737;43.334;21.936;2024-01-30T12:12:10;11.77;;;7.05;;
53835;SDS011;39737;43.334;21.936;2024-01-30T12:14:58;12.27;;;5.80;;
53835;SDS011;39737;43.334;21.936;2024-01-30T12:17:44;22.77;;;8.65;;
53835;SDS011;39737;43.334;21.936;2024-01-30T12:20:31;13.68;;;7.13;;
53835;SDS011;39737;43.334;21.936;2024-01-30T12:23:18;11.35;;;5.97;;
53835;SDS011;39737;43.334;21.936;2024-01-30T12:26:06;7.13;;;5.60;;
53835;SDS011;39737;43.334;21.936;2024-01-30T12:28:56;3.60;;;2.72;;
53835;SDS011;39737;43.334;21.936;2024-01-30T12:31:44;2.92;;;1.75;;
53835;SDS011;39737;43.334;21.936;2024-01-30T12:34:32;20.77;;;7.55;;
53835;SDS011;39737;43.334;21.936;2024-01-30T12:37:34;4.32;;;2.47;;
53835;SDS011;39737;43.334;21.936;2024-01-30T12:40:21;4.22;;;2.28;;
53835;SDS011;39737;43.334;21.936;2024-01-30T12:43:07;2.13;;;1.70;;
53835;SDS011;39737;43.334;21.936;2024-01-30T12:45:54;3.50;;;2.05;;
53835;SDS011;39737;43.334;21.936;2024-01-30T12:48:41;2.67;;;1.90;;
53835;SDS011;39737;43.334;21.936;2024-01-30T12:51:27;2.67;;;1.83;;
53835;SDS011;39737;43.334;21.936;2024-01-30T12:54:13;7.03;;;4.82;;
53835;SDS011;39737;43.334;21.936;2024-01-30T12:57:00;5.55;;;2.70;;
53835;SDS011;39737;43.334;21.936;2024-01-30T12:59:47;1.48;;;1.08;;
53835;SDS011;39737;43.334;21.936;2024-01-30T13:02:33;1.73;;;1.60;;
53835;SDS011;39737;43.334;21.936;2024-01-30T13:05:22;5.22;;;3.25;;
53835;SDS011;39737;43.334;21.936;2024-01-30T13:08:09;1.00;;;1.00;;
53835;SDS011;39737;43.334;21.936;2024-01-30T13:11:14;5.85;;;4.55;;
53835;SDS011;39737;43.334;21.936;2024-01-30T13:14:06;0.80;;;0.80;;
53835;SDS011;39737;43.334;21.936;2024-01-30T13:16:52;2.10;;;1.90;;
53835;SDS011;39737;43.334;21.936;2024-01-30T13:19:39;8.27;;;3.58;;
53835;SDS011;39737;43.334;21.936;2024-01-30T13:22:25;1.65;;;1.17;;
53835;SDS011;39737;43.334;21.936;2024-01-30T13:25:12;0.85;;;0.85;;
53835;SDS011;39737;43.334;21.936;2024-01-30T13:27:58;1.92;;;1.80;;
53835;SDS011;39737;43.334;21.936;2024-01-30T13:30:45;2.60;;;2.40;;
53835;SDS011;39737;43.334;21.936;2024-01-30T13:33:31;2.95;;;1.88;;
53835;SDS011;39737;43.334;21.936;2024-01-30T13:36:18;2.08;;;1.20;;
53835;SDS011;39737;43.334;21.936;2024-01-30T13:39:05;0.77;;;0.77;;
53835;SDS011;39737;43.334;21.936;2024-01-30T13:41:56;1.77;;;1.67;;
53835;SDS011;39737;43.334;21.936;2024-01-30T13:44:44;5.35;;;2.22;;
53835;SDS011;39737;43.334;21.936;2024-01-30T13:47:31;4.03;;;2.05;;
53835;SDS011;39737;43.334;21.936;2024-01-30T13:50:17;2.08;;;1.88;;
53835;SDS011;39737;43.334;21.936;2024-01-30T13:53:04;3.65;;;1.85;;
53835;SDS011;39737;43.334;21.936;2024-01-30T13:55:51;2.08;;;1.30;;
53835;SDS011;39737;43.334;21.936;2024-01-30T13:58:38;2.88;;;2.17;;
53835;SDS011;39737;43.334;21.936;2024-01-30T14:01:25;1.08;;;1.08;;
53835;SDS011;39737;43.334;21.936;2024-01-30T14:04:13;3.13;;;1.90;;
53835;SDS011;39737;43.334;21.936;2024-01-30T14:07:01;2.22;;;2.10;;
53835;SDS011;39737;43.334;21.936;2024-01-30T14:09:50;3.95;;;1.23;;
53835;SDS011;39737;43.334;21.936;2024-01-30T14:12:37;1.73;;;1.63;;
53835;SDS011;39737;43.334;21.936;2024-01-30T14:15:24;2.22;;;2.03;;
53835;SDS011;39737;43.334;21.936;2024-01-30T14:18:14;4.13;;;2.45;;
53835;SDS011;39737;43.334;21.936;2024-01-30T14:21:20;1.50;;;1.45;;
53835;SDS011;39737;43.334;21.936;2024-01-30T14:24:07;2.28;;;2.08;;
53835;SDS011;39737;43.334;21.936;2024-01-30T14:26:54;1.40;;;1.30;;
53835;SDS011;39737;43.334;21.936;2024-01-30T14:29:41;1.23;;;1.20;;
53835;SDS011;39737;43.334;21.936;2024-01-30T14:32:28;2.92;;;1.65;;
53835;SDS011;39737;43.334;21.936;2024-01-30T14:35:15;2.33;;;1.75;;
53835;SDS011;39737;43.334;21.936;2024-01-30T14:38:02;2.47;;;2.28;;
53835;SDS011;39737;43.334;21.936;2024-01-30T14:40:51;1.35;;;0.98;;
53835;SDS011;39737;43.334;21.936;2024-01-30T14:43:38;3.72;;;1.80;;
53835;SDS011;39737;43.334;21.936;2024-01-30T14:46:25;1.95;;;1.38;;
53835;SDS011;39737;43.334;21.936;2024-01-30T14:49:13;3.08;;;1.90;;
53835;SDS011;39737;43.334;21.936;2024-01-30T14:52:01;0.93;;;0.93;;
53835;SDS011;39737;43.334;21.936;2024-01-30T14:54:50;3.33;;;2.53;;
53835;SDS011;39737;43.334;21.936;2024-01-30T14:57:37;1.95;;;1.02;;
53835;SDS011;39737;43.334;21.936;2024-01-30T15:00:24;1.77;;;1.67;;
53835;SDS011;39737;43.334;21.936;2024-01-30T15:03:11;2.15;;;2.05;;
53835;SDS011;39737;43.334;21.936;2024-01-30T15:05:57;3.53;;;1.77;;
53835;SDS011;39737;43.334;21.936;2024-01-30T15:08:44;2.20;;;2.00;;
53835;SDS011;39737;43.334;21.936;2024-01-30T15:11:31;1.77;;;1.58;;
53835;SDS011;39737;43.334;21.936;2024-01-30T15:14:19;2.30;;;2.03;;
53835;SDS011;39737;43.334;21.936;2024-01-30T15:17:06;2.10;;;2.00;;
53835;SDS011;39737;43.334;21.936;2024-01-30T15:19:53;2.75;;;1.85;;
53835;SDS011;39737;43.334;21.936;2024-01-30T15:22:39;3.63;;;3.25;;
53835;SDS011;39737;43.334;21.936;2024-01-30T15:25:26;5.78;;;2.88;;
53835;SDS011;39737;43.334;21.936;2024-01-30T15:28:15;3.33;;;2.78;;
53835;SDS011;39737;43.334;21.936;2024-01-30T15:31:01;3.05;;;2.35;;
53835;SDS011;39737;43.334;21.936;2024-01-30T15:33:48;10.63;;;3.42;;
53835;SDS011;39737;43.334;21.936;2024-01-30T15:36:34;3.72;;;2.72;;
53835;SDS011;39737;43.334;21.936;2024-01-30T15:39:21;6.28;;;2.08;;
53835;SDS011;39737;43.334;21.936;2024-01-30T15:42:09;26.25;;;3.60;;
53835;SDS011;39737;43.334;21.936;2024-01-30T15:44:55;6.75;;;2.97;;
53835;SDS011;39737;43.334;21.936;2024-01-30T15:47:42;4.97;;;4.38;;
53835;SDS011;39737;43.334;21.936;2024-01-30T15:50:28;4.78;;;4.32;;
53835;SDS011;39737;43.334;21.936;2024-01-30T15:53:15;10.43;;;5.68;;
53835;SDS011;39737;43.334;21.936;2024-01-30T15:56:01;10.10;;;3.50;;
53835;SDS011;39737;43.334;21.936;2024-01-30T15:58:48;4.60;;;3.75;;
53835;SDS011;39737;43.334;21.936;2024-01-30T16:01:36;5.57;;;2.85;;
53835;SDS011;39737;43.334;21.936;2024-01-30T16:04:25;5.65;;;3.75;;
53835;SDS011;39737;43.334;21.936;2024-01-30T16:07:11;3.15;;;2.88;;
53835;SDS011;39737;43.334;21.936;2024-01-30T16:09:58;3.33;;;3.00;;
53835;SDS011;39737;43.334;21.936;2024-01-30T16:12:44;1.50;;;1.40;;
53835;SDS011;39737;43.334;21.936;2024-01-30T16:15:33;4.45;;;2.55;;
53835;SDS011;39737;43.334;21.936;2024-01-30T16:18:19;3.45;;;3.15;;
53835;SDS011;39737;43.334;21.936;2024-01-30T16:21:06;5.82;;;3.15;;
53835;SDS011;39737;43.334;21.936;2024-01-30T16:23:54;2.85;;;2.47;;
53835;SDS011;39737;43.334;21.936;2024-01-30T16:26:41;1.73;;;1.63;;
53835;SDS011;39737;43.334;21.936;2024-01-30T16:29:28;1.27;;;1.23;;
53835;SDS011;39737;43.334;21.936;2024-01-30T16:32:14;1.52;;;1.42;;